Terminal Aerodrome Forecast
Issued by NWS Charleston, WV

Current Version | Previous Version | Graphics & Text | Print | Product List | Glossary Off
Versions: 1 2 3 4 5 6 7 8 9 10 11 12 13 14 15 16 17 18 19 20 21 22 23

294
FTUS41 KRLX 301733
TAFCRW
TAF
KCRW 301733Z 3018/0118 06005KT P6SM OVC100
     FM302100 VRB02KT 5SM SHRA VCTS OVC014CB
     FM010100 08006KT P6SM -SHRA OVC014
     FM010500 16008G15KT P6SM -SHRA OVC012
     FM011000 18006KT P6SM -SHRA OVC021
     FM011600 23007KT P6SM -SHRA VCTS BKN040CB=

USA.gov is the U.S. government's official web portal to all federal, state and local government web resources and services.